sensor_id;sensor_type;location;lat;lon;timestamp;P1;durP1;ratioP1;P2;durP2;ratioP2
26516;SDS011;14190;51.342;6.338;2023-04-01T00:00:50;9.55;;;2.42;;
26516;SDS011;14190;51.342;6.338;2023-04-01T00:03:19;5.47;;;1.85;;
26516;SDS011;14190;51.342;6.338;2023-04-01T00:05:47;3.27;;;1.65;;
26516;SDS011;14190;51.342;6.338;2023-04-01T00:08:14;7.90;;;1.87;;
26516;SDS011;14190;51.342;6.338;2023-04-01T00:10:41;7.95;;;2.37;;
26516;SDS011;14190;51.342;6.338;2023-04-01T00:13:11;8.38;;;1.75;;
26516;SDS011;14190;51.342;6.338;2023-04-01T00:15:38;3.27;;;1.42;;
26516;SDS011;14190;51.342;6.338;2023-04-01T00:18:05;7.95;;;1.85;;
26516;SDS011;14190;51.342;6.338;2023-04-01T00:20:33;7.05;;;1.85;;
26516;SDS011;14190;51.342;6.338;2023-04-01T00:23:00;6.62;;;1.90;;
26516;SDS011;14190;51.342;6.338;2023-04-01T00:25:28;6.17;;;2.08;;
26516;SDS011;14190;51.342;6.338;2023-04-01T00:27:55;7.87;;;1.95;;
26516;SDS011;14190;51.342;6.338;2023-04-01T00:30:22;3.62;;;1.60;;
26516;SDS011;14190;51.342;6.338;2023-04-01T00:32:53;3.75;;;2.08;;
26516;SDS011;14190;51.342;6.338;2023-04-01T00:35:20;5.95;;;1.90;;
26516;SDS011;14190;51.342;6.338;2023-04-01T00:37:48;6.30;;;2.52;;
26516;SDS011;14190;51.342;6.338;2023-04-01T00:40:30;3.12;;;1.85;;
26516;SDS011;14190;51.342;6.338;2023-04-01T00:42:52;8.23;;;1.80;;
26516;SDS011;14190;51.342;6.338;2023-04-01T00:45:30;5.30;;;1.75;;
26516;SDS011;14190;51.342;6.338;2023-04-01T00:47:58;4.65;;;2.08;;
26516;SDS011;14190;51.342;6.338;2023-04-01T00:50:26;2.67;;;1.55;;
26516;SDS011;14190;51.342;6.338;2023-04-01T00:52:54;3.95;;;1.80;;
26516;SDS011;14190;51.342;6.338;2023-04-01T00:55:21;5.35;;;1.55;;
26516;SDS011;14190;51.342;6.338;2023-04-01T00:57:50;2.35;;;1.50;;
26516;SDS011;14190;51.342;6.338;2023-04-01T01:00:17;3.33;;;1.55;;
26516;SDS011;14190;51.342;6.338;2023-04-01T01:02:47;3.00;;;1.70;;
26516;SDS011;14190;51.342;6.338;2023-04-01T01:05:16;3.00;;;1.32;;
26516;SDS011;14190;51.342;6.338;2023-04-01T01:07:46;3.58;;;1.62;;
26516;SDS011;14190;51.342;6.338;2023-04-01T01:10:48;3.72;;;1.52;;
26516;SDS011;14190;51.342;6.338;2023-04-01T01:15:25;5.42;;;2.00;;
26516;SDS011;14190;51.342;6.338;2023-04-01T01:17:56;7.58;;;1.60;;
26516;SDS011;14190;51.342;6.338;2023-04-01T01:20:44;5.50;;;1.62;;
26516;SDS011;14190;51.342;6.338;2023-04-01T01:23:09;4.35;;;1.70;;
26516;SDS011;14190;51.342;6.338;2023-04-01T01:28:18;4.13;;;1.40;;
26516;SDS011;14190;51.342;6.338;2023-04-01T01:36:06;4.12;;;1.65;;
26516;SDS011;14190;51.342;6.338;2023-04-01T01:38:35;6.42;;;2.05;;
26516;SDS011;14190;51.342;6.338;2023-04-01T01:41:04;3.58;;;1.42;;
26516;SDS011;14190;51.342;6.338;2023-04-01T01:43:37;3.25;;;1.35;;
26516;SDS011;14190;51.342;6.338;2023-04-01T01:46:06;3.12;;;1.52;;
26516;SDS011;14190;51.342;6.338;2023-04-01T01:48:34;3.70;;;1.80;;
26516;SDS011;14190;51.342;6.338;2023-04-01T01:51:03;6.60;;;1.67;;
26516;SDS011;14190;51.342;6.338;2023-04-01T01:53:31;7.40;;;2.08;;
26516;SDS011;14190;51.342;6.338;2023-04-01T01:55:59;8.30;;;2.35;;
26516;SDS011;14190;51.342;6.338;2023-04-01T01:58:36;6.37;;;2.40;;
26516;SDS011;14190;51.342;6.338;2023-04-01T02:01:05;6.53;;;2.98;;
26516;SDS011;14190;51.342;6.338;2023-04-01T02:03:34;4.75;;;2.72;;
26516;SDS011;14190;51.342;6.338;2023-04-01T02:06:04;6.17;;;2.77;;
26516;SDS011;14190;51.342;6.338;2023-04-01T02:08:35;4.92;;;2.45;;
26516;SDS011;14190;51.342;6.338;2023-04-01T02:11:05;8.63;;;2.72;;
26516;SDS011;14190;51.342;6.338;2023-04-01T02:16:11;3.90;;;2.02;;
26516;SDS011;14190;51.342;6.338;2023-04-01T02:18:36;4.78;;;2.30;;
26516;SDS011;14190;51.342;6.338;2023-04-01T02:21:05;5.20;;;2.33;;
26516;SDS011;14190;51.342;6.338;2023-04-01T02:23:33;5.22;;;2.12;;
26516;SDS011;14190;51.342;6.338;2023-04-01T02:26:02;3.27;;;1.95;;
26516;SDS011;14190;51.342;6.338;2023-04-01T02:28:31;4.62;;;1.98;;
26516;SDS011;14190;51.342;6.338;2023-04-01T02:30:58;4.60;;;2.25;;
26516;SDS011;14190;51.342;6.338;2023-04-01T02:33:28;4.07;;;1.60;;
26516;SDS011;14190;51.342;6.338;2023-04-01T02:35:56;4.75;;;2.08;;
26516;SDS011;14190;51.342;6.338;2023-04-01T02:38:23;5.58;;;2.00;;
26516;SDS011;14190;51.342;6.338;2023-04-01T02:40:55;7.00;;;1.95;;
26516;SDS011;14190;51.342;6.338;2023-04-01T02:43:20;6.90;;;1.55;;
26516;SDS011;14190;51.342;6.338;2023-04-01T02:45:48;3.52;;;1.60;;
26516;SDS011;14190;51.342;6.338;2023-04-01T02:48:15;8.20;;;2.40;;
26516;SDS011;14190;51.342;6.338;2023-04-01T02:50:42;2.45;;;1.82;;
26516;SDS011;14190;51.342;6.338;2023-04-01T02:53:10;4.22;;;1.95;;
26516;SDS011;14190;51.342;6.338;2023-04-01T02:55:38;3.70;;;1.85;;
26516;SDS011;14190;51.342;6.338;2023-04-01T02:58:05;2.37;;;1.82;;
26516;SDS011;14190;51.342;6.338;2023-04-01T03:00:33;7.62;;;2.10;;
26516;SDS011;14190;51.342;6.338;2023-04-01T03:03:00;2.33;;;2.00;;
26516;SDS011;14190;51.342;6.338;2023-04-01T03:05:29;5.87;;;2.27;;
26516;SDS011;14190;51.342;6.338;2023-04-01T03:07:56;3.15;;;2.50;;
26516;SDS011;14190;51.342;6.338;2023-04-01T03:10:24;2.58;;;1.90;;
26516;SDS011;14190;51.342;6.338;2023-04-01T03:12:51;4.17;;;2.10;;
26516;SDS011;14190;51.342;6.338;2023-04-01T03:15:19;3.08;;;2.17;;
26516;SDS011;14190;51.342;6.338;2023-04-01T03:17:46;3.95;;;2.10;;
26516;SDS011;14190;51.342;6.338;2023-04-01T03:20:15;4.15;;;2.02;;
26516;SDS011;14190;51.342;6.338;2023-04-01T03:22:42;6.42;;;2.33;;
26516;SDS011;14190;51.342;6.338;2023-04-01T03:25:10;4.62;;;2.15;;
26516;SDS011;14190;51.342;6.338;2023-04-01T03:27:37;3.90;;;1.85;;
26516;SDS011;14190;51.342;6.338;2023-04-01T03:30:06;3.72;;;2.25;;
26516;SDS011;14190;51.342;6.338;2023-04-01T03:32:37;3.60;;;2.02;;
26516;SDS011;14190;51.342;6.338;2023-04-01T03:35:07;5.28;;;1.72;;
26516;SDS011;14190;51.342;6.338;2023-04-01T03:37:36;3.55;;;1.90;;
26516;SDS011;14190;51.342;6.338;2023-04-01T03:40:04;2.40;;;2.05;;
26516;SDS011;14190;51.342;6.338;2023-04-01T03:42:32;6.60;;;2.50;;
26516;SDS011;14190;51.342;6.338;2023-04-01T03:44:59;5.83;;;2.37;;
26516;SDS011;14190;51.342;6.338;2023-04-01T03:47:27;2.80;;;2.12;;
26516;SDS011;14190;51.342;6.338;2023-04-01T03:49:54;5.05;;;2.27;;
26516;SDS011;14190;51.342;6.338;2023-04-01T03:52:22;1.90;;;1.80;;
26516;SDS011;14190;51.342;6.338;2023-04-01T03:54:49;5.22;;;2.12;;
26516;SDS011;14190;51.342;6.338;2023-04-01T03:57:17;4.92;;;1.95;;
26516;SDS011;14190;51.342;6.338;2023-04-01T03:59:45;2.72;;;1.77;;
26516;SDS011;14190;51.342;6.338;2023-04-01T04:02:12;5.65;;;1.75;;
26516;SDS011;14190;51.342;6.338;2023-04-01T04:04:40;2.83;;;2.10;;
26516;SDS011;14190;51.342;6.338;2023-04-01T04:07:07;2.47;;;2.00;;
26516;SDS011;14190;51.342;6.338;2023-04-01T04:09:37;5.97;;;2.35;;
26516;SDS011;14190;51.342;6.338;2023-04-01T04:12:04;6.12;;;2.67;;
26516;SDS011;14190;51.342;6.338;2023-04-01T04:14:32;3.67;;;2.45;;
26516;SDS011;14190;51.342;6.338;2023-04-01T04:16:59;4.97;;;2.90;;
26516;SDS011;14190;51.342;6.338;2023-04-01T04:19:31;7.25;;;3.17;;
26516;SDS011;14190;51.342;6.338;2023-04-01T04:21:56;3.85;;;3.05;;
26516;SDS011;14190;51.342;6.338;2023-04-01T04:24:23;7.55;;;3.12;;
26516;SDS011;14190;51.342;6.338;2023-04-01T04:26:58;4.33;;;3.27;;
26516;SDS011;14190;51.342;6.338;2023-04-01T04:29:26;4.22;;;2.87;;
26516;SDS011;14190;51.342;6.338;2023-04-01T04:31:53;5.90;;;2.67;;
26516;SDS011;14190;51.342;6.338;2023-04-01T04:34:21;4.75;;;2.60;;
26516;SDS011;14190;51.342;6.338;2023-04-01T04:36:49;2.37;;;2.17;;
26516;SDS011;14190;51.342;6.338;2023-04-01T04:39:17;3.27;;;2.80;;
26516;SDS011;14190;51.342;6.338;2023-04-01T04:41:45;3.40;;;2.30;;
26516;SDS011;14190;51.342;6.338;2023-04-01T04:44:12;3.02;;;2.72;;
26516;SDS011;14190;51.342;6.338;2023-04-01T04:46:39;5.33;;;3.10;;
26516;SDS011;14190;51.342;6.338;2023-04-01T04:49:09;3.70;;;3.37;;
26516;SDS011;14190;51.342;6.338;2023-04-01T04:51:36;5.87;;;3.70;;
26516;SDS011;14190;51.342;6.338;2023-04-01T04:54:04;6.50;;;4.08;;
26516;SDS011;14190;51.342;6.338;2023-04-01T04:59:09;6.50;;;4.95;;
26516;SDS011;14190;51.342;6.338;2023-04-01T05:01:40;7.78;;;5.90;;
26516;SDS011;14190;51.342;6.338;2023-04-01T05:04:08;7.05;;;6.03;;
26516;SDS011;14190;51.342;6.338;2023-04-01T05:06:37;7.70;;;6.20;;
26516;SDS011;14190;51.342;6.338;2023-04-01T05:09:04;6.70;;;5.58;;
26516;SDS011;14190;51.342;6.338;2023-04-01T05:11:32;10.18;;;5.42;;
26516;SDS011;14190;51.342;6.338;2023-04-01T05:13:59;7.30;;;6.12;;
26516;SDS011;14190;51.342;6.338;2023-04-01T05:16:27;8.00;;;6.30;;
26516;SDS011;14190;51.342;6.338;2023-04-01T05:18:54;6.90;;;6.20;;
26516;SDS011;14190;51.342;6.338;2023-04-01T05:21:22;8.20;;;6.62;;
26516;SDS011;14190;51.342;6.338;2023-04-01T05:23:50;12.47;;;6.25;;
26516;SDS011;14190;51.342;6.338;2023-04-01T05:26:17;9.33;;;7.12;;
26516;SDS011;14190;51.342;6.338;2023-04-01T05:28:46;9.93;;;7.15;;
26516;SDS011;14190;51.342;6.338;2023-04-01T05:31:13;12.00;;;8.80;;
26516;SDS011;14190;51.342;6.338;2023-04-01T05:33:43;9.80;;;7.50;;
26516;SDS011;14190;51.342;6.338;2023-04-01T05:36:11;10.72;;;8.38;;
26516;SDS011;14190;51.342;6.338;2023-04-01T05:38:40;11.57;;;10.27;;
26516;SDS011;14190;51.342;6.338;2023-04-01T05:41:10;11.88;;;8.78;;
26516;SDS011;14190;51.342;6.338;2023-04-01T05:43:39;12.55;;;8.60;;
26516;SDS011;14190;51.342;6.338;2023-04-01T05:46:11;11.18;;;8.60;;
26516;SDS011;14190;51.342;6.338;2023-04-01T05:48:40;14.87;;;9.98;;
26516;SDS011;14190;51.342;6.338;2023-04-01T05:51:12;13.68;;;10.82;;
26516;SDS011;14190;51.342;6.338;2023-04-01T05:53:37;12.23;;;9.88;;
26516;SDS011;14190;51.342;6.338;2023-04-01T05:56:11;14.45;;;10.82;;
26516;SDS011;14190;51.342;6.338;2023-04-01T05:58:37;12.75;;;8.85;;
26516;SDS011;14190;51.342;6.338;2023-04-01T06:01:07;12.47;;;9.83;;
26516;SDS011;14190;51.342;6.338;2023-04-01T06:03:51;13.45;;;8.90;;
26516;SDS011;14190;51.342;6.338;2023-04-01T06:06:23;9.28;;;7.75;;
26516;SDS011;14190;51.342;6.338;2023-04-01T06:08:49;11.73;;;9.08;;
26516;SDS011;14190;51.342;6.338;2023-04-01T06:11:19;10.03;;;9.03;;
26516;SDS011;14190;51.342;6.338;2023-04-01T06:16:36;10.15;;;8.98;;
26516;SDS011;14190;51.342;6.338;2023-04-01T06:21:56;11.33;;;9.63;;
26516;SDS011;14190;51.342;6.338;2023-04-01T06:24:41;13.22;;;10.10;;
26516;SDS011;14190;51.342;6.338;2023-04-01T06:30:03;12.35;;;10.23;;
26516;SDS011;14190;51.342;6.338;2023-04-01T06:42:54;10.03;;;8.88;;
26516;SDS011;14190;51.342;6.338;2023-04-01T06:48:35;9.88;;;8.88;;
26516;SDS011;14190;51.342;6.338;2023-04-01T06:51:18;11.50;;;8.53;;
26516;SDS011;14190;51.342;6.338;2023-04-01T06:56:52;10.25;;;7.90;;
26516;SDS011;14190;51.342;6.338;2023-04-01T06:59:25;9.08;;;8.18;;
26516;SDS011;14190;51.342;6.338;2023-04-01T07:01:50;8.05;;;7.17;;
26516;SDS011;14190;51.342;6.338;2023-04-01T07:04:24;8.80;;;7.90;;
26516;SDS011;14190;51.342;6.338;2023-04-01T07:06:52;8.18;;;7.42;;
26516;SDS011;14190;51.342;6.338;2023-04-01T07:09:33;8.18;;;7.37;;
26516;SDS011;14190;51.342;6.338;2023-04-01T07:12:16;8.85;;;7.90;;
26516;SDS011;14190;51.342;6.338;2023-04-01T07:14:51;8.43;;;7.58;;
26516;SDS011;14190;51.342;6.338;2023-04-01T07:19:50;9.45;;;8.55;;
26516;SDS011;14190;51.342;6.338;2023-04-01T07:25:48;9.75;;;8.75;;
26516;SDS011;14190;51.342;6.338;2023-04-01T07:27:30;12.15;;;9.45;;
26516;SDS011;14190;51.342;6.338;2023-04-01T07:29:58;11.63;;;10.13;;
26516;SDS011;14190;51.342;6.338;2023-04-01T07:40:30;12.73;;;9.10;;
26516;SDS011;14190;51.342;6.338;2023-04-01T07:45:45;8.95;;;7.92;;
26516;SDS011;14190;51.342;6.338;2023-04-01T07:48:24;8.35;;;7.55;;
26516;SDS011;14190;51.342;6.338;2023-04-01T07:56:02;5.97;;;5.40;;
26516;SDS011;14190;51.342;6.338;2023-04-01T07:58:41;8.10;;;6.50;;
26516;SDS011;14190;51.342;6.338;2023-04-01T08:01:24;7.30;;;6.47;;
26516;SDS011;14190;51.342;6.338;2023-04-01T08:06:37;9.13;;;7.00;;
26516;SDS011;14190;51.342;6.338;2023-04-01T08:09:09;9.30;;;7.05;;
26516;SDS011;14190;51.342;6.338;2023-04-01T08:14:29;11.45;;;8.95;;
26516;SDS011;14190;51.342;6.338;2023-04-01T08:17:33;9.95;;;7.80;;
26516;SDS011;14190;51.342;6.338;2023-04-01T08:22:57;16.73;;;9.88;;
26516;SDS011;14190;51.342;6.338;2023-04-01T08:25:24;15.83;;;10.05;;
26516;SDS011;14190;51.342;6.338;2023-04-01T08:28:00;14.03;;;9.95;;
26516;SDS011;14190;51.342;6.338;2023-04-01T08:30:23;16.32;;;10.72;;
26516;SDS011;14190;51.342;6.338;2023-04-01T08:32:59;13.13;;;10.28;;
26516;SDS011;14190;51.342;6.338;2023-04-01T08:35:28;13.68;;;10.58;;
26516;SDS011;14190;51.342;6.338;2023-04-01T08:38:06;16.75;;;11.33;;
26516;SDS011;14190;51.342;6.338;2023-04-01T08:46:12;17.45;;;11.95;;
26516;SDS011;14190;51.342;6.338;2023-04-01T08:54:20;16.70;;;11.57;;
26516;SDS011;14190;51.342;6.338;2023-04-01T09:07:39;18.75;;;13.25;;
26516;SDS011;14190;51.342;6.338;2023-04-01T09:10:15;20.43;;;14.68;;
26516;SDS011;14190;51.342;6.338;2023-04-01T09:12:45;19.70;;;13.22;;
26516;SDS011;14190;51.342;6.338;2023-04-01T09:15:27;21.15;;;13.72;;
26516;SDS011;14190;51.342;6.338;2023-04-01T09:25:36;23.32;;;17.95;;
26516;SDS011;14190;51.342;6.338;2023-04-01T09:28:09;31.12;;;18.40;;
26516;SDS011;14190;51.342;6.338;2023-04-01T09:38:48;30.62;;;18.82;;
26516;SDS011;14190;51.342;6.338;2023-04-01T09:41:19;27.98;;;18.07;;
26516;SDS011;14190;51.342;6.338;2023-04-01T09:44:02;27.62;;;18.35;;
26516;SDS011;14190;51.342;6.338;2023-04-01T09:46:37;32.45;;;18.52;;
26516;SDS011;14190;51.342;6.338;2023-04-01T09:59:47;36.20;;;21.77;;
26516;SDS011;14190;51.342;6.338;2023-04-01T10:08:18;34.78;;;18.55;;
26516;SDS011;14190;51.342;6.338;2023-04-01T10:10:39;30.52;;;19.23;;
26516;SDS011;14190;51.342;6.338;2023-04-01T10:16:02;33.42;;;20.12;;
26516;SDS011;14190;51.342;6.338;2023-04-01T10:21:03;27.27;;;19.02;;
26516;SDS011;14190;51.342;6.338;2023-04-01T10:23:43;33.18;;;20.82;;
26516;SDS011;14190;51.342;6.338;2023-04-01T10:26:22;30.85;;;20.40;;
26516;SDS011;14190;51.342;6.338;2023-04-01T10:34:29;29.72;;;18.87;;
26516;SDS011;14190;51.342;6.338;2023-04-01T10:36:52;28.27;;;18.70;;
26516;SDS011;14190;51.342;6.338;2023-04-01T10:42:27;27.90;;;20.12;;
26516;SDS011;14190;51.342;6.338;2023-04-01T10:47:59;27.77;;;18.30;;
26516;SDS011;14190;51.342;6.338;2023-04-01T10:58:46;26.15;;;16.45;;
26516;SDS011;14190;51.342;6.338;2023-04-01T11:01:20;23.95;;;16.80;;
26516;SDS011;14190;51.342;6.338;2023-04-01T11:04:06;26.20;;;17.12;;
26516;SDS011;14190;51.342;6.338;2023-04-01T11:09:25;22.52;;;15.15;;
26516;SDS011;14190;51.342;6.338;2023-04-01T11:12:08;24.82;;;14.00;;
26516;SDS011;14190;51.342;6.338;2023-04-01T11:20:18;18.95;;;11.43;;
26516;SDS011;14190;51.342;6.338;2023-04-01T11:22:46;17.92;;;12.18;;
26516;SDS011;14190;51.342;6.338;2023-04-01T11:25:17;18.37;;;11.95;;
26516;SDS011;14190;51.342;6.338;2023-04-01T11:33:04;19.32;;;12.20;;
26516;SDS011;14190;51.342;6.338;2023-04-01T11:35:36;19.77;;;13.00;;
26516;SDS011;14190;51.342;6.338;2023-04-01T11:40:51;17.73;;;13.20;;
26516;SDS011;14190;51.342;6.338;2023-04-01T11:43:25;22.00;;;13.88;;
26516;SDS011;14190;51.342;6.338;2023-04-01T11:46:07;24.12;;;15.55;;
26516;SDS011;14190;51.342;6.338;2023-04-01T11:59:16;23.95;;;15.38;;
26516;SDS011;14190;51.342;6.338;2023-04-01T12:01:43;24.15;;;14.47;;
26516;SDS011;14190;51.342;6.338;2023-04-01T12:06:52;22.73;;;14.20;;
26516;SDS011;14190;51.342;6.338;2023-04-01T12:09:36;20.35;;;15.25;;
26516;SDS011;14190;51.342;6.338;2023-04-01T12:25:22;21.48;;;15.30;;
26516;SDS011;14190;51.342;6.338;2023-04-01T12:30:49;21.60;;;14.33;;
26516;SDS011;14190;51.342;6.338;2023-04-01T12:41:39;17.98;;;12.20;;
26516;SDS011;14190;51.342;6.338;2023-04-01T12:52:13;18.10;;;10.82;;
26516;SDS011;14190;51.342;6.338;2023-04-01T12:57:44;14.75;;;10.50;;
26516;SDS011;14190;51.342;6.338;2023-04-01T13:01:14;15.95;;;11.48;;
26516;SDS011;14190;51.342;6.338;2023-04-01T13:05:31;15.83;;;10.50;;
26516;SDS011;14190;51.342;6.338;2023-04-01T13:08:02;16.05;;;11.60;;
26516;SDS011;14190;51.342;6.338;2023-04-01T13:15:48;14.03;;;10.15;;
26516;SDS011;14190;51.342;6.338;2023-04-01T13:21:03;10.00;;;8.88;;
26516;SDS011;14190;51.342;6.338;2023-04-01T13:26:06;13.35;;;9.53;;
26516;SDS011;14190;51.342;6.338;2023-04-01T13:28:40;12.93;;;9.23;;
26516;SDS011;14190;51.342;6.338;2023-04-01T13:31:09;10.85;;;8.80;;
26516;SDS011;14190;51.342;6.338;2023-04-01T13:36:16;9.83;;;8.08;;
26516;SDS011;14190;51.342;6.338;2023-04-01T13:38:47;11.28;;;8.05;;
26516;SDS011;14190;51.342;6.338;2023-04-01T13:41:29;11.28;;;7.00;;
26516;SDS011;14190;51.342;6.338;2023-04-01T13:49:11;7.90;;;6.78;;
26516;SDS011;14190;51.342;6.338;2023-04-01T13:54:26;12.05;;;7.15;;
26516;SDS011;14190;51.342;6.338;2023-04-01T14:07:23;9.00;;;6.87;;
26516;SDS011;14190;51.342;6.338;2023-04-01T14:15:03;7.62;;;6.83;;
26516;SDS011;14190;51.342;6.338;2023-04-01T14:17:31;9.55;;;6.95;;
26516;SDS011;14190;51.342;6.338;2023-04-01T14:20:10;8.53;;;7.15;;
26516;SDS011;14190;51.342;6.338;2023-04-01T14:22:46;10.53;;;7.35;;
26516;SDS011;14190;51.342;6.338;2023-04-01T14:28:14;9.20;;;8.30;;
26516;SDS011;14190;51.342;6.338;2023-04-01T14:30:56;11.70;;;8.15;;
26516;SDS011;14190;51.342;6.338;2023-04-01T14:35:56;8.13;;;7.25;;
26516;SDS011;14190;51.342;6.338;2023-04-01T14:38:28;8.95;;;6.80;;
26516;SDS011;14190;51.342;6.338;2023-04-01T14:46:02;8.43;;;6.55;;
26516;SDS011;14190;51.342;6.338;2023-04-01T14:54:00;8.58;;;7.25;;
26516;SDS011;14190;51.342;6.338;2023-04-01T14:56:36;8.10;;;6.87;;
26516;SDS011;14190;51.342;6.338;2023-04-01T14:59:07;9.43;;;7.37;;
26516;SDS011;14190;51.342;6.338;2023-04-01T15:01:37;6.78;;;6.05;;
26516;SDS011;14190;51.342;6.338;2023-04-01T15:17:43;9.50;;;6.58;;
26516;SDS011;14190;51.342;6.338;2023-04-01T15:22:53;8.28;;;6.97;;
26516;SDS011;14190;51.342;6.338;2023-04-01T15:30:21;8.48;;;6.97;;
26516;SDS011;14190;51.342;6.338;2023-04-01T15:37:56;9.60;;;7.33;;
26516;SDS011;14190;51.342;6.338;2023-04-01T15:40:27;8.30;;;7.40;;
26516;SDS011;14190;51.342;6.338;2023-04-01T15:42:55;7.65;;;6.85;;
26516;SDS011;14190;51.342;6.338;2023-04-01T15:48:01;8.33;;;7.53;;
26516;SDS011;14190;51.342;6.338;2023-04-01T15:50:32;9.03;;;7.40;;
26516;SDS011;14190;51.342;6.338;2023-04-01T15:53:07;9.03;;;7.85;;
26516;SDS011;14190;51.342;6.338;2023-04-01T15:55:54;9.08;;;7.87;;
26516;SDS011;14190;51.342;6.338;2023-04-01T16:01:04;11.53;;;8.53;;
26516;SDS011;14190;51.342;6.338;2023-04-01T16:03:55;9.55;;;8.55;;
26516;SDS011;14190;51.342;6.338;2023-04-01T16:06:30;9.98;;;8.28;;
26516;SDS011;14190;51.342;6.338;2023-04-01T16:11:37;11.20;;;9.45;;
26516;SDS011;14190;51.342;6.338;2023-04-01T16:22:16;13.13;;;9.80;;
26516;SDS011;14190;51.342;6.338;2023-04-01T16:24:46;14.33;;;10.75;;
26516;SDS011;14190;51.342;6.338;2023-04-01T16:30:09;15.65;;;13.30;;
26516;SDS011;14190;51.342;6.338;2023-04-01T16:32:41;16.67;;;11.83;;
26516;SDS011;14190;51.342;6.338;2023-04-01T16:35:21;12.60;;;11.25;;
26516;SDS011;14190;51.342;6.338;2023-04-01T16:43:05;10.90;;;9.60;;
26516;SDS011;14190;51.342;6.338;2023-04-01T16:45:32;15.13;;;12.25;;
26516;SDS011;14190;51.342;6.338;2023-04-01T16:50:42;12.90;;;10.15;;
26516;SDS011;14190;51.342;6.338;2023-04-01T16:53:09;12.33;;;10.30;;
26516;SDS011;14190;51.342;6.338;2023-04-01T16:55:52;10.72;;;9.63;;
26516;SDS011;14190;51.342;6.338;2023-04-01T16:58:36;13.90;;;9.30;;
26516;SDS011;14190;51.342;6.338;2023-04-01T17:00:49;12.47;;;10.40;;
26516;SDS011;14190;51.342;6.338;2023-04-01T17:03:29;11.93;;;10.20;;
26516;SDS011;14190;51.342;6.338;2023-04-01T17:06:03;11.73;;;10.18;;
26516;SDS011;14190;51.342;6.338;2023-04-01T17:13:50;14.28;;;10.03;;
26516;SDS011;14190;51.342;6.338;2023-04-01T17:16:26;13.22;;;10.72;;
26516;SDS011;14190;51.342;6.338;2023-04-01T17:42:40;18.73;;;13.30;;
26516;SDS011;14190;51.342;6.338;2023-04-01T17:45:25;17.10;;;13.03;;
26516;SDS011;14190;51.342;6.338;2023-04-01T17:48:00;16.87;;;13.93;;
26516;SDS011;14190;51.342;6.338;2023-04-01T17:51:32;18.37;;;12.65;;
26516;SDS011;14190;51.342;6.338;2023-04-01T17:53:20;19.20;;;14.47;;
26516;SDS011;14190;51.342;6.338;2023-04-01T17:58:20;17.05;;;13.28;;
26516;SDS011;14190;51.342;6.338;2023-04-01T18:08:41;18.32;;;13.78;;
26516;SDS011;14190;51.342;6.338;2023-04-01T18:11:23;22.95;;;16.35;;
26516;SDS011;14190;51.342;6.338;2023-04-01T18:13:59;17.12;;;12.80;;
26516;SDS011;14190;51.342;6.338;2023-04-01T18:16:32;14.93;;;12.05;;
26516;SDS011;14190;51.342;6.338;2023-04-01T18:19:00;12.58;;;10.15;;
26516;SDS011;14190;51.342;6.338;2023-04-01T18:21:32;13.00;;;9.88;;
26516;SDS011;14190;51.342;6.338;2023-04-01T18:24:05;12.18;;;10.63;;
26516;SDS011;14190;51.342;6.338;2023-04-01T18:26:34;15.25;;;10.32;;
26516;SDS011;14190;51.342;6.338;2023-04-01T18:29:13;13.25;;;9.70;;
26516;SDS011;14190;51.342;6.338;2023-04-01T18:31:44;14.18;;;8.98;;
26516;SDS011;14190;51.342;6.338;2023-04-01T18:34:18;10.15;;;8.65;;
26516;SDS011;14190;51.342;6.338;2023-04-01T18:36:46;10.68;;;8.98;;
26516;SDS011;14190;51.342;6.338;2023-04-01T18:42:22;13.00;;;11.00;;
26516;SDS011;14190;51.342;6.338;2023-04-01T18:44:50;11.90;;;10.05;;
26516;SDS011;14190;51.342;6.338;2023-04-01T18:49:55;13.72;;;11.28;;
26516;SDS011;14190;51.342;6.338;2023-04-01T18:52:42;16.30;;;12.25;;
26516;SDS011;14190;51.342;6.338;2023-04-01T18:58:08;14.40;;;12.43;;
26516;SDS011;14190;51.342;6.338;2023-04-01T19:00:26;17.23;;;13.32;;
26516;SDS011;14190;51.342;6.338;2023-04-01T19:02:58;14.87;;;12.18;;
26516;SDS011;14190;51.342;6.338;2023-04-01T19:05:30;15.75;;;12.10;;
26516;SDS011;14190;51.342;6.338;2023-04-01T19:08:18;12.93;;;10.50;;
26516;SDS011;14190;51.342;6.338;2023-04-01T19:16:09;13.25;;;10.60;;
26516;SDS011;14190;51.342;6.338;2023-04-01T19:26:45;12.25;;;10.45;;
26516;SDS011;14190;51.342;6.338;2023-04-01T19:42:24;9.98;;;8.78;;
26516;SDS011;14190;51.342;6.338;2023-04-01T19:44:53;9.58;;;8.58;;
26516;SDS011;14190;51.342;6.338;2023-04-01T19:50:09;9.20;;;7.60;;
26516;SDS011;14190;51.342;6.338;2023-04-01T19:52:39;8.53;;;7.72;;
26516;SDS011;14190;51.342;6.338;2023-04-01T19:55:12;9.23;;;6.72;;
26516;SDS011;14190;51.342;6.338;2023-04-01T19:57:42;7.70;;;6.92;;
26516;SDS011;14190;51.342;6.338;2023-04-01T20:00:14;7.00;;;6.30;;
26516;SDS011;14190;51.342;6.338;2023-04-01T20:07:45;7.75;;;5.37;;
26516;SDS011;14190;51.342;6.338;2023-04-01T20:10:17;7.40;;;5.70;;
26516;SDS011;14190;51.342;6.338;2023-04-01T20:15:26;6.12;;;5.62;;
26516;SDS011;14190;51.342;6.338;2023-04-01T20:17:48;6.35;;;5.70;;
26516;SDS011;14190;51.342;6.338;2023-04-01T20:25:39;6.50;;;5.90;;
26516;SDS011;14190;51.342;6.338;2023-04-01T20:33:28;7.15;;;6.50;;
26516;SDS011;14190;51.342;6.338;2023-04-01T20:41:09;7.45;;;6.75;;
26516;SDS011;14190;51.342;6.338;2023-04-01T20:43:40;8.20;;;7.37;;
26516;SDS011;14190;51.342;6.338;2023-04-01T20:51:06;7.08;;;6.40;;
26516;SDS011;14190;51.342;6.338;2023-04-01T20:53:38;8.73;;;6.83;;
26516;SDS011;14190;51.342;6.338;2023-04-01T20:56:27;7.42;;;6.53;;
26516;SDS011;14190;51.342;6.338;2023-04-01T20:59:02;7.72;;;6.92;;
26516;SDS011;14190;51.342;6.338;2023-04-01T21:07:04;5.75;;;5.22;;
26516;SDS011;14190;51.342;6.338;2023-04-01T21:14:54;9.08;;;5.67;;
26516;SDS011;14190;51.342;6.338;2023-04-01T21:19:55;6.55;;;5.85;;
26516;SDS011;14190;51.342;6.338;2023-04-01T21:22:29;5.62;;;5.10;;
26516;SDS011;14190;51.342;6.338;2023-04-01T21:57:10;6.33;;;5.72;;
26516;SDS011;14190;51.342;6.338;2023-04-01T22:02:25;5.33;;;4.83;;
26516;SDS011;14190;51.342;6.338;2023-04-01T22:04:51;7.20;;;6.50;;
26516;SDS011;14190;51.342;6.338;2023-04-01T22:07:20;6.92;;;6.22;;
26516;SDS011;14190;51.342;6.338;2023-04-01T22:09:52;7.45;;;6.67;;
26516;SDS011;14190;51.342;6.338;2023-04-01T22:12:36;9.08;;;7.22;;
26516;SDS011;14190;51.342;6.338;2023-04-01T22:20:24;7.70;;;6.83;;
26516;SDS011;14190;51.342;6.338;2023-04-01T22:25:22;6.65;;;6.05;;
26516;SDS011;14190;51.342;6.338;2023-04-01T22:27:49;7.95;;;6.67;;
26516;SDS011;14190;51.342;6.338;2023-04-01T22:30:34;8.10;;;7.00;;
26516;SDS011;14190;51.342;6.338;2023-04-01T22:33:11;9.23;;;8.10;;
26516;SDS011;14190;51.342;6.338;2023-04-01T22:35:41;8.03;;;7.22;;
26516;SDS011;14190;51.342;6.338;2023-04-01T22:38:15;8.75;;;7.65;;
26516;SDS011;14190;51.342;6.338;2023-04-01T22:43:13;10.88;;;7.62;;
26516;SDS011;14190;51.342;6.338;2023-04-01T22:45:45;10.23;;;8.60;;
26516;SDS011;14190;51.342;6.338;2023-04-01T22:48:12;9.58;;;8.48;;
26516;SDS011;14190;51.342;6.338;2023-04-01T22:55:38;11.70;;;9.08;;
26516;SDS011;14190;51.342;6.338;2023-04-01T22:58:10;10.50;;;8.68;;
26516;SDS011;14190;51.342;6.338;2023-04-01T23:00:56;10.72;;;9.63;;
26516;SDS011;14190;51.342;6.338;2023-04-01T23:03:29;12.65;;;10.98;;
26516;SDS011;14190;51.342;6.338;2023-04-01T23:06:03;12.43;;;11.00;;
26516;SDS011;14190;51.342;6.338;2023-04-01T23:11:11;11.63;;;10.32;;
26516;SDS011;14190;51.342;6.338;2023-04-01T23:13:36;12.15;;;10.40;;
26516;SDS011;14190;51.342;6.338;2023-04-01T23:16:05;12.88;;;11.08;;